Time;durP1;ratioP1;P1;durP2;ratioP2;P2;SDS_P1;SDS_P2;PMS_P1;PMS_P2;Temp;Humidity;BMP_temperature;BMP_pressure;BME280_temperature;BME280_humidity;BME280_pressure;Samples;Min_cycle;Max_cycle;Signal;HPM_P1;HPM_P2
2022/05/11 00:00:01;;;;;;;7.53;4.95;;;;;;;;;;5050973;28;20040;-37
2022/05/11 00:02:37;;;;;;;7.38;5.20;;;;;;;;;;5051148;28;20541;-37
2022/05/11 00:05:04;;;;;;;9.25;5.43;;;;;;;;;;5050831;28;20044;-38
2022/05/11 00:07:29;;;;;;;10.98;5.50;;;;;;;;;;5051066;28;20025;-37
2022/05/11 00:09:55;;;;;;;6.82;5.03;;;;;;;;;;5050933;28;20079;-37
2022/05/11 00:12:20;;;;;;;9.52;5.47;;;;;;;;;;5051241;28;20033;-37
2022/05/11 00:14:45;;;;;;;10.57;5.40;;;;;;;;;;5050947;28;20079;-38
2022/05/11 00:17:11;;;;;;;9.27;4.82;;;;;;;;;;5051006;28;20025;-37
2022/05/11 00:19:36;;;;;;;10.18;6.47;;;;;;;;;;5050971;28;20056;-37
2022/05/11 00:22:02;;;;;;;11.20;5.10;;;;;;;;;;5050756;28;20533;-37
2022/05/11 00:24:27;;;;;;;9.70;5.53;;;;;;;;;;5050959;28;20033;-37
2022/05/11 00:26:52;;;;;;;10.82;4.95;;;;;;;;;;5033037;28;20029;-37
2022/05/11 00:29:18;;;;;;;6.50;5.25;;;;;;;;;;5032998;28;20032;-37
2022/05/11 00:31:43;;;;;;;6.38;5.05;;;;;;;;;;5050879;28;20100;-37
2022/05/11 00:34:09;;;;;;;10.20;6.13;;;;;;;;;;5051038;28;20461;-36
2022/05/11 00:36:35;;;;;;;6.75;5.00;;;;;;;;;;5051400;28;20020;-36
2022/05/11 00:39:01;;;;;;;10.13;5.72;;;;;;;;;;5054833;28;20136;-37
2022/05/11 00:41:26;;;;;;;9.85;5.30;;;;;;;;;;5054539;28;20545;-37
2022/05/11 00:43:57;;;;;;;7.57;5.22;;;;;;;;;;5054271;28;20033;-37
2022/05/11 00:46:42;;;;;;;5.45;4.93;;;;;;;;;;5054536;28;20472;-37
2022/05/11 00:52:00;;;;;;;7.20;4.95;;;;;;;;;;5054246;28;20025;-38
2022/05/11 00:54:27;;;;;;;12.07;6.30;;;;;;;;;;5054492;28;20033;-38
2022/05/11 00:56:55;;;;;;;8.88;5.10;;;;;;;;;;5054609;28;20017;-37
2022/05/11 00:59:24;;;;;;;8.90;5.13;;;;;;;;;;5054841;28;20025;-38
2022/05/11 01:01:50;;;;;;;12.98;5.38;;;;;;;;;;5054358;28;20032;-38
2022/05/11 01:04:17;;;;;;;14.13;5.43;;;;;;;;;;5053873;28;20426;-38
2022/05/11 01:06:43;;;;;;;7.38;5.75;;;;;;;;;;5054377;28;20391;-38
2022/05/11 01:09:10;;;;;;;10.85;5.88;;;;;;;;;;5054065;28;20025;-37
2022/05/11 01:11:55;;;;;;;7.10;4.93;;;;;;;;;;5054002;28;20480;-37
2022/05/11 01:14:22;;;;;;;11.45;5.38;;;;;;;;;;5054043;28;20048;-38
2022/05/11 01:16:48;;;;;;;5.85;4.95;;;;;;;;;;5053913;28;20464;-37
2022/05/11 01:19:25;;;;;;;9.80;5.40;;;;;;;;;;5053637;28;20041;-38
2022/05/11 01:21:54;;;;;;;9.70;5.90;;;;;;;;;;5053685;28;20056;-38
2022/05/11 01:24:22;;;;;;;14.95;5.57;;;;;;;;;;5053808;28;20057;-38
2022/05/11 01:26:47;;;;;;;5.60;4.90;;;;;;;;;;5053618;28;20029;-38
2022/05/11 01:29:13;;;;;;;9.65;5.70;;;;;;;;;;5035858;28;20024;-38
2022/05/11 01:31:38;;;;;;;5.88;4.57;;;;;;;;;;5053596;28;20025;-38
2022/05/11 01:34:04;;;;;;;10.05;5.80;;;;;;;;;;5035682;28;20114;-38
2022/05/11 01:36:31;;;;;;;8.27;4.85;;;;;;;;;;5035656;28;20522;-37
2022/05/11 01:38:59;;;;;;;7.05;4.93;;;;;;;;;;5053429;28;20071;-38
2022/05/11 01:41:30;;;;;;;6.80;4.72;;;;;;;;;;5053412;28;20515;-38
2022/05/11 01:43:56;;;;;;;9.27;5.32;;;;;;;;;;5053352;28;20037;-38
2022/05/11 01:46:21;;;;;;;14.02;5.25;;;;;;;;;;5053545;28;20395;-38
2022/05/11 01:48:47;;;;;;;10.27;4.82;;;;;;;;;;5053543;28;20056;-38
2022/05/11 01:51:14;;;;;;;7.15;5.30;;;;;;;;;;5053195;28;20048;-38
2022/05/11 01:53:39;;;;;;;7.43;4.82;;;;;;;;;;5053472;28;20095;-38
2022/05/11 01:56:06;;;;;;;6.65;5.00;;;;;;;;;;5051900;28;20540;-38
2022/05/11 01:58:31;;;;;;;8.50;5.43;;;;;;;;;;5053210;28;20056;-37
2022/05/11 02:00:58;;;;;;;8.10;4.88;;;;;;;;;;5053225;28;20061;-37
2022/05/11 02:03:23;;;;;;;7.55;5.15;;;;;;;;;;5053086;28;20057;-38
2022/05/11 02:08:34;;;;;;;6.95;4.55;;;;;;;;;;5052950;28;20541;-38
2022/05/11 02:11:00;;;;;;;9.48;6.15;;;;;;;;;;5053125;28;20033;-37
2022/05/11 02:13:27;;;;;;;7.40;5.05;;;;;;;;;;5035305;28;20025;-38
2022/05/11 02:15:53;;;;;;;10.98;5.32;;;;;;;;;;5053026;28;20036;-37
2022/05/11 02:18:18;;;;;;;9.88;5.45;;;;;;;;;;5052787;28;20146;-38
2022/05/11 02:20:43;;;;;;;9.93;6.38;;;;;;;;;;5053057;28;20021;-38
2022/05/11 02:23:12;;;;;;;7.63;5.88;;;;;;;;;;5052509;28;20037;-38
2022/05/11 02:25:37;;;;;;;7.47;4.65;;;;;;;;;;5052250;28;20025;-38
2022/05/11 02:28:03;;;;;;;9.98;5.07;;;;;;;;;;5052535;28;20090;-38
2022/05/11 02:30:30;;;;;;;10.95;4.88;;;;;;;;;;5052534;28;20024;-38
2022/05/11 02:32:55;;;;;;;9.13;5.38;;;;;;;;;;5052421;28;20033;-38
2022/05/11 02:35:22;;;;;;;9.77;5.45;;;;;;;;;;5052359;28;20025;-37
2022/05/11 02:37:50;;;;;;;9.07;6.47;;;;;;;;;;5051187;28;20037;-38
2022/05/11 02:40:18;;;;;;;7.50;5.28;;;;;;;;;;5052313;28;20039;-38
2022/05/11 02:42:44;;;;;;;9.30;4.90;;;;;;;;;;5052253;28;20475;-37
2022/05/11 02:45:10;;;;;;;8.40;5.63;;;;;;;;;;5034276;28;20375;-38
2022/05/11 02:47:36;;;;;;;9.65;5.85;;;;;;;;;;5052222;28;20032;-38
2022/05/11 02:50:03;;;;;;;9.05;5.88;;;;;;;;;;5052077;28;20021;-38
2022/05/11 02:52:30;;;;;;;7.07;4.80;;;;;;;;;;5052392;28;20048;-38
2022/05/11 02:54:56;;;;;;;8.02;5.10;;;;;;;;;;5051935;28;20024;-38
2022/05/11 02:57:21;;;;;;;8.95;6.20;;;;;;;;;;5051973;28;20033;-38
2022/05/11 02:59:49;;;;;;;8.65;5.57;;;;;;;;;;5051587;28;20021;-38
2022/05/11 03:02:14;;;;;;;10.80;5.55;;;;;;;;;;5033844;28;20480;-38
2022/05/11 03:04:40;;;;;;;9.18;5.13;;;;;;;;;;5033947;28;20045;-38
2022/05/11 03:07:05;;;;;;;8.20;4.93;;;;;;;;;;5034006;28;20040;-38
2022/05/11 03:09:30;;;;;;;6.15;4.72;;;;;;;;;;5033886;28;20032;-38
2022/05/11 03:11:56;;;;;;;8.52;5.03;;;;;;;;;;5051990;28;20060;-38
2022/05/11 03:14:21;;;;;;;9.93;5.40;;;;;;;;;;5033994;28;20096;-38
2022/05/11 03:16:46;;;;;;;10.60;5.82;;;;;;;;;;5051597;28;20033;-38
2022/05/11 03:19:12;;;;;;;10.45;6.25;;;;;;;;;;5051626;28;20017;-39
2022/05/11 03:21:37;;;;;;;10.15;5.85;;;;;;;;;;5051568;28;20467;-38
2022/05/11 03:24:03;;;;;;;7.80;5.32;;;;;;;;;;5051511;28;20021;-38
2022/05/11 03:26:28;;;;;;;16.80;5.97;;;;;;;;;;5033704;28;20119;-38
2022/05/11 03:28:54;;;;;;;8.88;5.30;;;;;;;;;;5051496;28;20021;-38
2022/05/11 03:31:19;;;;;;;10.40;5.75;;;;;;;;;;5051694;28;20021;-40
2022/05/11 03:36:29;;;;;;;9.25;4.63;;;;;;;;;;5051452;28;20090;-38
2022/05/11 03:38:54;;;;;;;7.88;5.47;;;;;;;;;;5051263;28;20025;-38
2022/05/11 03:41:20;;;;;;;8.55;5.82;;;;;;;;;;5051285;28;20045;-38
2022/05/11 03:43:45;;;;;;;9.32;5.32;;;;;;;;;;5051544;28;20047;-38
2022/05/11 03:46:11;;;;;;;7.85;4.90;;;;;;;;;;5051215;28;20029;-38
2022/05/11 03:48:37;;;;;;;12.35;5.57;;;;;;;;;;5051552;28;20437;-38
2022/05/11 03:51:04;;;;;;;8.60;5.20;;;;;;;;;;5051078;28;20029;-38
2022/05/11 03:53:30;;;;;;;13.75;6.68;;;;;;;;;;5051139;28;20047;-38
2022/05/11 03:55:55;;;;;;;9.70;5.50;;;;;;;;;;5051339;28;20475;-38
2022/05/11 03:58:20;;;;;;;7.32;5.05;;;;;;;;;;5051168;28;20032;-38
2022/05/11 04:00:46;;;;;;;11.38;5.68;;;;;;;;;;5051108;28;20427;-38
2022/05/11 04:03:12;;;;;;;7.85;5.57;;;;;;;;;;5050975;28;20049;-38
2022/05/11 04:05:37;;;;;;;9.20;6.05;;;;;;;;;;5051118;28;20510;-38
2022/05/11 04:08:02;;;;;;;10.65;5.65;;;;;;;;;;5051048;28;20119;-38
2022/05/11 04:10:28;;;;;;;11.30;5.60;;;;;;;;;;5051010;28;20365;-38
2022/05/11 04:12:53;;;;;;;14.75;6.18;;;;;;;;;;5053761;28;20035;-37
2022/05/11 04:15:19;;;;;;;6.22;4.47;;;;;;;;;;5055142;28;20035;-38
2022/05/11 04:17:44;;;;;;;13.63;4.63;;;;;;;;;;5055129;28;20444;-39
2022/05/11 04:20:12;;;;;;;8.30;6.03;;;;;;;;;;5054836;28;20064;-38
2022/05/11 04:22:38;;;;;;;8.52;5.78;;;;;;;;;;5055145;28;20021;-38
2022/05/11 04:25:04;;;;;;;9.48;5.50;;;;;;;;;;5054898;28;20032;-39
2022/05/11 04:27:29;;;;;;;8.48;5.55;;;;;;;;;;5054880;28;20481;-38
2022/05/11 04:29:55;;;;;;;12.65;6.00;;;;;;;;;;5054461;28;20032;-38
2022/05/11 04:32:20;;;;;;;7.85;5.05;;;;;;;;;;5055036;28;20436;-38
2022/05/11 04:34:46;;;;;;;9.63;5.75;;;;;;;;;;5053390;28;20502;-38
2022/05/11 04:37:12;;;;;;;8.40;5.60;;;;;;;;;;5054662;28;20145;-38
2022/05/11 04:39:39;;;;;;;11.32;5.32;;;;;;;;;;5054691;28;20040;-38
2022/05/11 04:42:05;;;;;;;7.05;5.18;;;;;;;;;;5054653;28;20186;-38
2022/05/11 04:44:31;;;;;;;6.43;5.15;;;;;;;;;;5054610;28;20082;-38
2022/05/11 04:46:57;;;;;;;7.82;5.57;;;;;;;;;;5054458;28;20095;-38
2022/05/11 04:49:25;;;;;;;9.98;6.55;;;;;;;;;;5054702;28;20372;-38
2022/05/11 04:52:11;;;;;;;11.40;6.22;;;;;;;;;;5054476;28;20025;-38
2022/05/11 04:54:44;;;;;;;8.60;5.95;;;;;;;;;;5053944;28;20062;-38
2022/05/11 04:57:09;;;;;;;;;;;;;;;;;;5054904;28;20036;-37
2022/05/11 04:59:37;;;;;;;8.60;4.78;;;;;;;;;;5054299;28;19904;-38
2022/05/11 05:02:04;;;;;;;7.47;4.60;;;;;;;;;;5053908;28;20091;-37
2022/05/11 05:04:31;;;;;;;6.80;4.88;;;;;;;;;;5053944;28;20499;-37
2022/05/11 05:06:57;;;;;;;8.20;5.30;;;;;;;;;;5054130;28;20514;-38
2022/05/11 05:09:23;;;;;;;7.65;5.03;;;;;;;;;;5036308;28;20055;-38
2022/05/11 05:11:49;;;;;;;7.10;5.00;;;;;;;;;;5054031;28;20036;-37
2022/05/11 05:14:15;;;;;;;10.00;5.07;;;;;;;;;;5053896;28;20586;-38
2022/05/11 05:16:41;;;;;;;7.53;5.10;;;;;;;;;;5053988;28;20420;-38
2022/05/11 05:19:07;;;;;;;8.00;5.38;;;;;;;;;;5053798;28;20027;-38
2022/05/11 05:21:33;;;;;;;6.65;4.85;;;;;;;;;;5053794;28;20102;-38
2022/05/11 05:24:00;;;;;;;8.02;5.68;;;;;;;;;;5053188;28;20033;-38
2022/05/11 05:26:26;;;;;;;9.88;6.28;;;;;;;;;;5035980;28;20033;-38
2022/05/11 05:31:38;;;;;;;7.45;5.65;;;;;;;;;;5053605;28;20025;-38
2022/05/11 05:34:05;;;;;;;8.43;4.82;;;;;;;;;;5053642;28;20017;-38
2022/05/11 05:36:32;;;;;;;8.48;5.57;;;;;;;;;;5053585;28;20502;-38
2022/05/11 05:38:58;;;;;;;16.63;6.15;;;;;;;;;;5053691;28;20414;-38
2022/05/11 05:41:24;;;;;;;11.95;5.90;;;;;;;;;;5053451;28;20033;-38
2022/05/11 05:43:50;;;;;;;12.38;5.25;;;;;;;;;;5053500;28;20379;-38
2022/05/11 05:46:16;;;;;;;9.45;5.00;;;;;;;;;;5053526;28;20029;-38
2022/05/11 05:48:43;;;;;;;10.73;5.72;;;;;;;;;;5035833;28;20021;-37
2022/05/11 05:51:12;;;;;;;13.10;5.70;;;;;;;;;;5053148;28;20075;-37
2022/05/11 05:53:45;;;;;;;9.60;5.25;;;;;;;;;;5053142;28;20023;-38
2022/05/11 05:56:11;;;;;;;8.10;5.07;;;;;;;;;;5053413;28;20056;-37
2022/05/11 05:58:37;;;;;;;9.45;6.47;;;;;;;;;;5053200;28;20025;-38
2022/05/11 06:01:04;;;;;;;9.73;5.70;;;;;;;;;;5052932;28;20403;-38
2022/05/11 06:03:34;;;;;;;10.80;5.50;;;;;;;;;;5052863;28;20040;-37
2022/05/11 06:06:07;;;;;;;7.85;5.22;;;;;;;;;;5052933;28;20508;-38
2022/05/11 06:08:33;;;;;;;14.90;5.07;;;;;;;;;;5053030;28;20025;-38
2022/05/11 06:11:03;;;;;;;8.07;5.10;;;;;;;;;;5052754;28;20028;-37
2022/05/11 06:13:29;;;;;;;7.75;5.38;;;;;;;;;;5052797;28;20036;-37
2022/05/11 06:16:02;;;;;;;11.85;5.78;;;;;;;;;;5053000;28;20017;-38
2022/05/11 06:18:29;;;;;;;13.57;5.32;;;;;;;;;;5053040;28;20048;-39
2022/05/11 06:20:56;;;;;;;8.85;5.10;;;;;;;;;;5052622;28;20104;-39
2022/05/11 06:23:22;;;;;;;9.10;5.60;;;;;;;;;;5034797;28;20037;-38
2022/05/11 06:25:51;;;;;;;11.00;5.80;;;;;;;;;;5052542;28;20028;-38
2022/05/11 06:28:18;;;;;;;7.95;4.55;;;;;;;;;;5052504;28;20040;-38
2022/05/11 06:30:47;;;;;;;11.35;5.10;;;;;;;;;;5052575;28;20019;-38
2022/05/11 06:33:14;;;;;;;8.63;5.03;;;;;;;;;;5052496;28;20075;-38
2022/05/11 06:35:46;;;;;;;12.18;5.32;;;;;;;;;;5051590;28;20021;-38
2022/05/11 06:38:12;;;;;;;8.00;4.97;;;;;;;;;;5034466;28;20095;-38
2022/05/11 06:40:38;;;;;;;7.30;4.78;;;;;;;;;;5051279;28;20024;-38
2022/05/11 06:43:04;;;;;;;8.45;5.30;;;;;;;;;;5052163;28;20041;-38
2022/05/11 06:45:30;;;;;;;11.02;5.15;;;;;;;;;;5052191;28;20468;-38
2022/05/11 06:47:56;;;;;;;7.07;5.05;;;;;;;;;;5052203;28;20056;-38
2022/05/11 06:50:24;;;;;;;7.75;5.18;;;;;;;;;;5052087;28;20052;-38
2022/05/11 06:52:50;;;;;;;12.65;5.43;;;;;;;;;;5052196;28;20111;-38
2022/05/11 07:00:46;;;;;;;11.35;5.70;;;;;;;;;;5052005;28;20082;-38
2022/05/11 07:03:12;;;;;;;6.13;4.60;;;;;;;;;;5051476;28;20565;-38
2022/05/11 07:05:39;;;;;;;5.70;4.68;;;;;;;;;;5052005;28;20472;-38
2022/05/11 07:08:05;;;;;;;6.40;4.63;;;;;;;;;;5052043;28;20052;-38
2022/05/11 07:10:31;;;;;;;6.50;4.50;;;;;;;;;;5051972;28;20033;-38
2022/05/11 07:12:57;;;;;;;7.88;5.15;;;;;;;;;;5051734;28;20510;-38
2022/05/11 07:15:23;;;;;;;6.25;5.13;;;;;;;;;;5033767;28;20040;-38
2022/05/11 07:18:04;;;;;;;9.15;5.28;;;;;;;;;;5051989;28;20044;-38
2022/05/11 07:20:36;;;;;;;10.38;5.20;;;;;;;;;;5051674;28;20484;-39
2022/05/11 07:23:06;;;;;;;9.55;6.03;;;;;;;;;;5051576;28;20044;-37
2022/05/11 07:25:32;;;;;;;9.98;6.43;;;;;;;;;;5051787;28;20142;-38
2022/05/11 07:27:59;;;;;;;7.00;4.50;;;;;;;;;;5051551;28;20450;-38
2022/05/11 07:30:26;;;;;;;6.93;4.65;;;;;;;;;;5051558;28;20108;-40
2022/05/11 07:32:52;;;;;;;7.78;5.18;;;;;;;;;;5051430;28;20132;-38
2022/05/11 07:35:18;;;;;;;7.10;5.03;;;;;;;;;;5050110;28;20515;-39
2022/05/11 07:37:47;;;;;;;10.43;5.82;;;;;;;;;;5051455;28;20021;-38
2022/05/11 07:40:14;;;;;;;11.95;5.88;;;;;;;;;;5051339;28;20031;-38
2022/05/11 07:42:40;;;;;;;15.25;6.10;;;;;;;;;;5051303;28;20565;-38
2022/05/11 07:45:06;;;;;;;12.13;6.35;;;;;;;;;;5051341;28;20052;-38
2022/05/11 07:47:33;;;;;;;9.40;5.65;;;;;;;;;;5033249;28;20120;-38
2022/05/11 07:49:59;;;;;;;10.13;5.28;;;;;;;;;;5051161;28;20021;-38
2022/05/11 07:52:24;;;;;;;6.15;5.28;;;;;;;;;;5051197;28;20032;-38
2022/05/11 07:54:50;;;;;;;8.77;6.45;;;;;;;;;;5051152;28;20025;-38
2022/05/11 08:00:10;;;;;;;11.02;6.68;;;;;;;;;;5051068;28;20494;-43
2022/05/11 08:02:37;;;;;;;6.65;5.15;;;;;;;;;;5051093;28;20049;-38
2022/05/11 08:05:05;;;;;;;16.73;5.80;;;;;;;;;;5050811;28;20077;-38
2022/05/11 08:07:52;;;;;;;8.05;5.75;;;;;;;;;;5049790;28;20033;-38
2022/05/11 08:10:38;;;;;;;19.05;4.95;;;;;;;;;;5051250;28;20068;-38
2022/05/11 08:13:07;;;;;;;7.70;5.28;;;;;;;;;;5050567;28;20045;-38
2022/05/11 08:15:37;;;;;;;9.05;4.75;;;;;;;;;;5050827;28;20059;-38
2022/05/11 08:18:05;;;;;;;7.18;5.50;;;;;;;;;;5049623;28;20048;-46
2022/05/11 08:20:33;;;;;;;7.28;4.80;;;;;;;;;;5051259;28;20021;-38
2022/05/11 08:23:05;;;;;;;8.02;4.97;;;;;;;;;;5049343;28;20463;-38
2022/05/11 08:25:35;;;;;;;7.55;5.00;;;;;;;;;;5050841;28;20100;-37
2022/05/11 08:28:01;;;;;;;9.15;4.95;;;;;;;;;;5050899;28;20040;-38
2022/05/11 08:33:21;;;;;;;6.63;4.82;;;;;;;;;;5050933;28;20120;-38
2022/05/11 08:35:49;;;;;;;13.57;5.40;;;;;;;;;;5050764;28;20480;-38
2022/05/11 08:38:15;;;;;;;12.63;6.03;;;;;;;;;;5050731;28;20434;-38
2022/05/11 08:40:50;;;;;;;7.97;5.32;;;;;;;;;;5050843;28;20025;-38
2022/05/11 08:43:17;;;;;;;6.38;5.25;;;;;;;;;;5050395;28;20051;-38
2022/05/11 08:45:54;;;;;;;7.55;5.22;;;;;;;;;;5050659;28;20017;-38
2022/05/11 08:48:47;;;;;;;9.82;5.40;;;;;;;;;;5050698;28;20361;-38
2022/05/11 08:51:21;;;;;;;7.22;4.88;;;;;;;;;;5047637;28;20047;-38
2022/05/11 08:53:50;;;;;;;8.38;4.82;;;;;;;;;;5050727;28;20068;-38
2022/05/11 08:56:17;;;;;;;11.15;4.90;;;;;;;;;;5050918;28;20079;-38
2022/05/11 08:58:52;;;;;;;16.20;5.25;;;;;;;;;;5053199;28;20071;-38
2022/05/11 09:01:21;;;;;;;8.20;5.50;;;;;;;;;;5054135;28;20029;-38
2022/05/11 09:03:49;;;;;;;8.27;4.82;;;;;;;;;;5053922;28;20053;-38
2022/05/11 09:06:26;;;;;;;15.88;5.20;;;;;;;;;;5054168;28;20052;-38
2022/05/11 09:08:55;;;;;;;8.70;4.70;;;;;;;;;;5054061;28;20029;-38
2022/05/11 09:11:47;;;;;;;7.97;4.43;;;;;;;;;;5052647;28;20077;-38
2022/05/11 09:14:15;;;;;;;11.10;5.18;;;;;;;;;;5050166;28;20033;-39
2022/05/11 09:16:46;;;;;;;14.55;4.85;;;;;;;;;;5054047;28;20047;-38
2022/05/11 09:19:18;;;;;;;9.77;4.80;;;;;;;;;;5053736;28;20471;-38
2022/05/11 09:21:49;;;;;;;7.18;4.55;;;;;;;;;;5053853;28;20052;-38
2022/05/11 09:24:18;;;;;;;5.05;3.53;;;;;;;;;;5053736;28;20025;-38
2022/05/11 09:26:46;;;;;;;9.52;4.50;;;;;;;;;;5053792;28;20114;-38
2022/05/11 09:29:16;;;;;;;13.40;3.95;;;;;;;;;;5053725;28;20025;-38
2022/05/11 09:31:43;;;;;;;8.02;3.65;;;;;;;;;;5053764;28;20040;-38
2022/05/11 09:34:12;;;;;;;7.93;4.60;;;;;;;;;;5053515;28;20311;-40
2022/05/11 09:36:42;;;;;;;6.35;4.53;;;;;;;;;;5053686;28;20023;-38
2022/05/11 09:39:13;;;;;;;7.65;4.05;;;;;;;;;;5053502;28;20111;-38
2022/05/11 09:41:44;;;;;;;11.15;4.88;;;;;;;;;;5053484;28;20048;-38
2022/05/11 09:44:20;;;;;;;6.90;4.43;;;;;;;;;;5053384;28;20032;-38
2022/05/11 09:46:46;;;;;;;7.25;4.80;;;;;;;;;;5053358;28;20475;-39
2022/05/11 09:49:20;;;;;;;6.97;4.07;;;;;;;;;;5053332;28;20043;-38
2022/05/11 09:51:46;;;;;;;5.55;3.88;;;;;;;;;;5053372;28;20155;-38
2022/05/11 09:54:38;;;;;;;7.20;3.95;;;;;;;;;;5053375;28;20120;-38
2022/05/11 09:57:16;;;;;;;12.18;5.28;;;;;;;;;;5044229;28;20044;-38
2022/05/11 09:59:51;;;;;;;13.52;5.47;;;;;;;;;;5053286;28;20040;-38
2022/05/11 10:02:22;;;;;;;17.92;5.80;;;;;;;;;;5052928;28;20048;-38
2022/05/11 10:05:08;;;;;;;7.85;4.18;;;;;;;;;;5052967;28;20094;-38
2022/05/11 10:07:44;;;;;;;7.40;4.13;;;;;;;;;;5053113;28;20029;-38
2022/05/11 10:10:12;;;;;;;5.20;4.00;;;;;;;;;;5051954;28;20032;-38
2022/05/11 10:12:39;;;;;;;7.50;5.20;;;;;;;;;;5053043;28;20024;-38
2022/05/11 10:23:25;;;;;;;8.98;5.85;;;;;;;;;;5052549;28;20048;-38
2022/05/11 10:25:58;;;;;;;13.98;5.25;;;;;;;;;;5052964;28;20017;-39
2022/05/11 10:28:24;;;;;;;12.10;4.07;;;;;;;;;;5052725;28;20036;-38
2022/05/11 10:31:05;;;;;;;8.57;5.00;;;;;;;;;;5034730;28;20059;-38
2022/05/11 10:33:49;;;;;;;6.05;4.90;;;;;;;;;;5052490;28;20090;-38
2022/05/11 10:36:25;;;;;;;11.77;5.18;;;;;;;;;;5052365;28;20506;-38
2022/05/11 10:39:09;;;;;;;10.48;7.10;;;;;;;;;;5052664;28;20079;-38
2022/05/11 10:41:37;;;;;;;9.68;5.55;;;;;;;;;;5052584;28;20453;-38
2022/05/11 10:44:06;;;;;;;12.57;4.57;;;;;;;;;;5052190;28;20016;-39
2022/05/11 10:46:36;;;;;;;14.80;4.65;;;;;;;;;;5052393;28;20036;-38
2022/05/11 10:49:16;;;;;;;7.95;4.00;;;;;;;;;;5052435;28;20068;-38
2022/05/11 10:51:47;;;;;;;6.57;3.83;;;;;;;;;;5052155;28;20047;-38
2022/05/11 10:54:24;;;;;;;10.88;4.60;;;;;;;;;;5052255;28;20029;-38
2022/05/11 10:57:02;;;;;;;9.77;4.95;;;;;;;;;;5052354;28;20119;-38
2022/05/11 10:59:28;;;;;;;7.15;2.90;;;;;;;;;;5052152;28;20131;-39
2022/05/11 11:02:02;;;;;;;19.63;4.95;;;;;;;;;;5051983;28;20163;-38
2022/05/11 11:04:30;;;;;;;11.10;4.20;;;;;;;;;;5051783;28;20048;-38
2022/05/11 11:07:15;;;;;;;8.57;4.20;;;;;;;;;;5051920;28;20033;-38
2022/05/11 11:09:43;;;;;;;11.15;3.85;;;;;;;;;;5051942;28;20032;-38
2022/05/11 11:12:27;;;;;;;8.75;4.55;;;;;;;;;;5051736;28;20127;-38
2022/05/11 11:14:55;;;;;;;10.80;4.80;;;;;;;;;;5051743;28;20442;-39
2022/05/11 11:17:22;;;;;;;8.15;3.72;;;;;;;;;;5033885;28;20028;-39
2022/05/11 11:19:48;;;;;;;9.02;4.57;;;;;;;;;;5051769;28;20029;-38
2022/05/11 11:22:14;;;;;;;7.88;4.35;;;;;;;;;;5051197;28;20120;-38
2022/05/11 11:24:43;;;;;;;5.55;4.32;;;;;;;;;;5051523;28;20141;-38
2022/05/11 11:27:09;;;;;;;7.55;4.05;;;;;;;;;;5051470;28;20037;-38
2022/05/11 11:29:36;;;;;;;10.98;5.45;;;;;;;;;;5051794;28;20036;-38
2022/05/11 11:32:05;;;;;;;5.90;3.25;;;;;;;;;;5051705;28;20025;-38
2022/05/11 11:34:32;;;;;;;6.57;3.92;;;;;;;;;;5051380;28;20135;-38
2022/05/11 11:36:59;;;;;;;3.47;2.72;;;;;;;;;;5051392;28;20460;-37
2022/05/11 11:39:43;;;;;;;7.50;4.20;;;;;;;;;;5051387;28;20059;-38
2022/05/11 11:42:09;;;;;;;8.55;3.88;;;;;;;;;;5051440;28;20120;-38
2022/05/11 11:44:46;;;;;;;7.20;4.00;;;;;;;;;;5051367;28;20478;-38
2022/05/11 11:47:25;;;;;;;11.60;3.90;;;;;;;;;;5051448;28;20376;-38
2022/05/11 11:49:51;;;;;;;9.77;4.80;;;;;;;;;;5033520;28;20029;-38
2022/05/11 11:52:37;;;;;;;6.65;4.38;;;;;;;;;;5051235;28;20017;-38
2022/05/11 11:55:27;;;;;;;7.22;4.35;;;;;;;;;;5051007;28;20033;-38
2022/05/11 11:57:54;;;;;;;6.88;4.03;;;;;;;;;;5039598;28;20057;-38
2022/05/11 12:00:20;;;;;;;7.80;3.67;;;;;;;;;;5051174;28;20375;-38
2022/05/11 12:02:46;;;;;;;13.45;4.47;;;;;;;;;;5051142;28;20037;-38
2022/05/11 12:05:28;;;;;;;6.80;3.85;;;;;;;;;;5051037;28;20033;-38
2022/05/11 12:16:28;;;;;;;13.98;5.82;;;;;;;;;;5051299;28;20025;-38
2022/05/11 12:19:07;;;;;;;5.68;3.78;;;;;;;;;;5051345;28;20025;-38
2022/05/11 12:21:36;;;;;;;7.90;4.50;;;;;;;;;;5050966;28;20507;-37
2022/05/11 12:24:05;;;;;;;6.60;3.75;;;;;;;;;;5050779;28;20033;-38
2022/05/11 12:26:33;;;;;;;11.30;4.43;;;;;;;;;;5033040;28;20025;-38
2022/05/11 12:31:59;;;;;;;4.20;3.53;;;;;;;;;;5050797;28;20539;-38
2022/05/11 12:34:27;;;;;;;12.45;3.75;;;;;;;;;;5054402;28;20029;-38
2022/05/11 12:36:53;;;;;;;7.68;3.92;;;;;;;;;;5054791;28;20436;-38
2022/05/11 12:39:49;;;;;;;3.90;3.47;;;;;;;;;;5054845;28;20029;-38
2022/05/11 12:42:30;;;;;;;11.00;3.97;;;;;;;;;;5043844;28;20044;-38
2022/05/11 12:44:56;;;;;;;6.22;4.82;;;;;;;;;;5054730;28;20033;-38
2022/05/11 12:47:21;;;;;;;12.20;4.60;;;;;;;;;;5054544;28;20028;-38
2022/05/11 12:49:48;;;;;;;10.70;3.70;;;;;;;;;;5054645;28;20499;-39
2022/05/11 12:52:17;;;;;;;8.52;3.85;;;;;;;;;;5054432;28;20021;-38
2022/05/11 12:54:54;;;;;;;2.80;2.42;;;;;;;;;;5054437;28;20033;-38
2022/05/11 12:57:20;;;;;;;8.18;3.90;;;;;;;;;;5054371;28;20020;-38
2022/05/11 12:59:50;;;;;;;5.93;3.33;;;;;;;;;;5054357;28;20025;-38
2022/05/11 13:02:21;;;;;;;5.30;3.17;;;;;;;;;;5054031;28;20519;-39
2022/05/11 13:04:52;;;;;;;8.50;3.58;;;;;;;;;;5054047;28;20045;-38
2022/05/11 13:07:20;;;;;;;6.00;3.70;;;;;;;;;;5054064;28;20522;-38
2022/05/11 13:09:47;;;;;;;17.73;4.45;;;;;;;;;;5036224;28;20021;-38
2022/05/11 13:12:14;;;;;;;5.55;3.80;;;;;;;;;;5052794;28;20124;-39
2022/05/11 13:14:48;;;;;;;8.65;3.30;;;;;;;;;;5053928;28;20061;-38
2022/05/11 13:17:21;;;;;;;11.20;4.07;;;;;;;;;;5036222;28;20039;-38
2022/05/11 13:19:57;;;;;;;3.78;2.95;;;;;;;;;;5054071;28;20060;-38
2022/05/11 13:22:25;;;;;;;17.67;3.88;;;;;;;;;;5053995;28;20044;-39
2022/05/11 13:24:55;;;;;;;9.23;3.63;;;;;;;;;;5054029;28;20013;-38
2022/05/11 13:27:32;;;;;;;5.80;3.00;;;;;;;;;;5053721;28;20693;-38
2022/05/11 13:30:19;;;;;;;5.80;2.95;;;;;;;;;;5054083;28;20025;-38
2022/05/11 13:32:53;;;;;;;6.90;2.47;;;;;;;;;;5053790;28;20111;-38
2022/05/11 13:35:18;;;;;;;5.82;3.17;;;;;;;;;;5053503;28;20032;-38
2022/05/11 13:37:58;;;;;;;5.30;2.70;;;;;;;;;;5053569;28;20104;-38
2022/05/11 13:40:28;;;;;;;8.55;3.08;;;;;;;;;;5053812;28;20111;-38
2022/05/11 13:42:54;;;;;;;7.82;3.15;;;;;;;;;;5053371;28;20400;-38
2022/05/11 13:45:20;;;;;;;6.22;2.42;;;;;;;;;;5053083;28;20033;-38
2022/05/11 13:50:36;;;;;;;5.88;2.83;;;;;;;;;;5035541;28;20116;-38
2022/05/11 13:53:17;;;;;;;2.78;2.17;;;;;;;;;;5053513;28;20426;-38
2022/05/11 13:56:15;;;;;;;6.25;2.90;;;;;;;;;;5053336;28;20044;-38
2022/05/11 13:58:46;;;;;;;7.60;2.85;;;;;;;;;;5008950;28;20063;-38
2022/05/11 14:01:19;;;;;;;13.02;2.95;;;;;;;;;;5053416;28;20428;-38
2022/05/11 14:03:49;;;;;;;6.18;3.75;;;;;;;;;;5052733;28;20052;-38
2022/05/11 14:06:23;;;;;;;7.40;2.80;;;;;;;;;;5053112;28;20111;-38
2022/05/11 14:08:48;;;;;;;5.68;2.90;;;;;;;;;;5053095;28;20108;-39
2022/05/11 14:11:14;;;;;;;7.32;2.92;;;;;;;;;;5053465;28;20105;-39
2022/05/11 14:13:40;;;;;;;4.20;2.40;;;;;;;;;;5052991;28;20123;-38
2022/05/11 14:16:07;;;;;;;5.22;2.88;;;;;;;;;;5052884;28;20096;-38
2022/05/11 14:18:32;;;;;;;4.78;2.47;;;;;;;;;;5052874;28;20032;-38
2022/05/11 14:20:58;;;;;;;8.75;3.28;;;;;;;;;;5053158;28;20337;-38
2022/05/11 14:23:23;;;;;;;5.82;2.63;;;;;;;;;;5052692;28;20040;-38
2022/05/11 14:25:49;;;;;;;5.32;3.90;;;;;;;;;;5052576;28;20537;-39
2022/05/11 14:28:16;;;;;;;6.85;2.78;;;;;;;;;;5052666;28;20035;-38
2022/05/11 14:30:42;;;;;;;5.60;3.08;;;;;;;;;;5052692;28;20021;-38
2022/05/11 14:33:10;;;;;;;9.23;3.17;;;;;;;;;;5052506;28;20131;-39
2022/05/11 14:35:36;;;;;;;7.88;2.70;;;;;;;;;;5052496;28;20023;-38
2022/05/11 14:38:02;;;;;;;4.53;2.95;;;;;;;;;;5052406;28;20120;-38
2022/05/11 14:40:28;;;;;;;9.10;2.90;;;;;;;;;;5052467;28;20025;-38
2022/05/11 14:42:54;;;;;;;4.10;3.13;;;;;;;;;;5052359;28;20491;-38
2022/05/11 14:45:20;;;;;;;13.05;4.40;;;;;;;;;;5052377;28;20056;-39
2022/05/11 14:47:48;;;;;;;9.38;3.28;;;;;;;;;;5052310;28;20036;-38
2022/05/11 14:50:20;;;;;;;6.78;2.90;;;;;;;;;;5052244;28;20017;-38
2022/05/11 14:52:47;;;;;;;7.03;2.97;;;;;;;;;;5052463;28;20032;-38
2022/05/11 14:55:13;;;;;;;14.75;3.17;;;;;;;;;;5051282;28;20337;-38
2022/05/11 15:03:08;;;;;;;10.93;3.30;;;;;;;;;;5033825;28;20057;-39
2022/05/11 15:05:36;;;;;;;8.73;3.08;;;;;;;;;;5051978;28;20059;-38
2022/05/11 15:08:02;;;;;;;4.68;3.13;;;;;;;;;;5052097;28;20037;-39
2022/05/11 15:10:27;;;;;;;7.35;3.92;;;;;;;;;;5051979;28;20021;-38
2022/05/11 15:15:37;;;;;;;4.93;2.75;;;;;;;;;;5051871;28;20111;-38
2022/05/11 15:18:10;;;;;;;4.50;3.30;;;;;;;;;;5051642;28;20503;-38
2022/05/11 15:20:35;;;;;;;7.97;3.55;;;;;;;;;;5051747;28;20024;-39
2022/05/11 15:23:01;;;;;;;9.98;3.22;;;;;;;;;;5051422;28;20037;-38
2022/05/11 15:25:29;;;;;;;7.50;2.90;;;;;;;;;;5050334;28;20033;-38
2022/05/11 15:27:54;;;;;;;4.30;3.10;;;;;;;;;;5051866;28;20017;-40
2022/05/11 15:30:23;;;;;;;10.13;3.53;;;;;;;;;;5051733;28;20497;-38
2022/05/11 15:32:52;;;;;;;8.05;3.22;;;;;;;;;;5051687;28;20487;-38
2022/05/11 15:35:20;;;;;;;12.40;3.97;;;;;;;;;;5051318;28;20029;-38
2022/05/11 15:37:46;;;;;;;5.85;3.95;;;;;;;;;;5051475;28;20345;-37
2022/05/11 15:40:12;;;;;;;6.63;3.22;;;;;;;;;;5051350;28;20036;-39
2022/05/11 15:42:37;;;;;;;4.25;2.67;;;;;;;;;;5051580;28;20028;-38